Terminal Aerodrome Forecast
Issued by NWS

Home | Current Version | Previous Version | Text Only | Print | Product List | Glossary Off
Versions: 1 2 3 4 5 6 7 8 9 10 11 12 13 14 15 16 17 18 19

000
FTUS43 KGRB 281500 AAA
TAFCWA
TAF AMD
KCWA 281509Z 2815/2912 27012G20KT P6SM OVC012
     FM281900 26016G26KT P6SM SCT015 OVC035
      TEMPO 2819/2823 BKN015
     FM290000 27013G20KT P6SM OVC030=

USA.gov is the U.S. government's official web portal to all federal, state and local government web resources and services.